sensor_id;sensor_type;location;lat;lon;timestamp;temperature;humidity
10314;DHT22;5202;49.138;10.090;2023-04-29T00:02:28;9.10;99.90
10314;DHT22;5202;49.138;10.090;2023-04-29T00:05:04;9.10;99.90
10314;DHT22;5202;49.138;10.090;2023-04-29T00:07:36;9.20;99.90
10314;DHT22;5202;49.138;10.090;2023-04-29T00:10:29;9.20;99.90
10314;DHT22;5202;49.138;10.090;2023-04-29T00:12:57;9.20;99.90
10314;DHT22;5202;49.138;10.090;2023-04-29T00:15:26;9.20;99.90
10314;DHT22;5202;49.138;10.090;2023-04-29T00:17:54;9.20;99.90
10314;DHT22;5202;49.138;10.090;2023-04-29T00:20:23;9.20;99.90
10314;DHT22;5202;49.138;10.090;2023-04-29T00:22:52;9.30;99.90
10314;DHT22;5202;49.138;10.090;2023-04-29T00:25:20;9.30;99.90
10314;DHT22;5202;49.138;10.090;2023-04-29T00:27:48;9.30;99.90
10314;DHT22;5202;49.138;10.090;2023-04-29T00:30:17;9.40;99.90
10314;DHT22;5202;49.138;10.090;2023-04-29T00:32:45;9.40;99.90
10314;DHT22;5202;49.138;10.090;2023-04-29T00:35:13;9.40;99.90
10314;DHT22;5202;49.138;10.090;2023-04-29T00:37:42;9.40;99.90
10314;DHT22;5202;49.138;10.090;2023-04-29T00:40:12;9.50;99.90
10314;DHT22;5202;49.138;10.090;2023-04-29T00:42:41;9.50;99.90
10314;DHT22;5202;49.138;10.090;2023-04-29T00:45:10;9.60;99.90
10314;DHT22;5202;49.138;10.090;2023-04-29T00:47:38;9.60;99.90
10314;DHT22;5202;49.138;10.090;2023-04-29T00:50:08;9.70;99.90
10314;DHT22;5202;49.138;10.090;2023-04-29T00:52:37;9.70;99.90
10314;DHT22;5202;49.138;10.090;2023-04-29T00:55:06;9.80;99.90
10314;DHT22;5202;49.138;10.090;2023-04-29T00:57:37;9.80;99.90
10314;DHT22;5202;49.138;10.090;2023-04-29T01:00:06;9.80;99.90
10314;DHT22;5202;49.138;10.090;2023-04-29T01:02:36;9.80;99.90
10314;DHT22;5202;49.138;10.090;2023-04-29T01:05:05;9.90;99.90
10314;DHT22;5202;49.138;10.090;2023-04-29T01:07:43;9.80;99.90
10314;DHT22;5202;49.138;10.090;2023-04-29T01:10:18;9.90;99.90
10314;DHT22;5202;49.138;10.090;2023-04-29T01:12:58;9.90;99.90
10314;DHT22;5202;49.138;10.090;2023-04-29T01:15:37;9.90;99.90
10314;DHT22;5202;49.138;10.090;2023-04-29T01:18:11;10.00;99.90
10314;DHT22;5202;49.138;10.090;2023-04-29T01:20:43;10.00;99.90
10314;DHT22;5202;49.138;10.090;2023-04-29T01:23:12;10.00;99.90
10314;DHT22;5202;49.138;10.090;2023-04-29T01:25:42;10.10;99.90
10314;DHT22;5202;49.138;10.090;2023-04-29T01:28:23;10.20;99.90
10314;DHT22;5202;49.138;10.090;2023-04-29T01:31:06;10.20;99.90
10314;DHT22;5202;49.138;10.090;2023-04-29T01:33:43;10.20;99.90
10314;DHT22;5202;49.138;10.090;2023-04-29T01:36:22;10.10;99.90
10314;DHT22;5202;49.138;10.090;2023-04-29T01:39:05;10.20;99.90
10314;DHT22;5202;49.138;10.090;2023-04-29T01:41:42;10.20;99.90
10314;DHT22;5202;49.138;10.090;2023-04-29T01:44:22;10.20;99.90
10314;DHT22;5202;49.138;10.090;2023-04-29T01:46:52;10.20;99.90
10314;DHT22;5202;49.138;10.090;2023-04-29T01:49:27;10.20;99.90
10314;DHT22;5202;49.138;10.090;2023-04-29T01:51:55;10.30;99.90
10314;DHT22;5202;49.138;10.090;2023-04-29T01:54:24;10.30;99.90
10314;DHT22;5202;49.138;10.090;2023-04-29T01:56:54;10.40;99.90
10314;DHT22;5202;49.138;10.090;2023-04-29T01:59:34;10.40;99.90
10314;DHT22;5202;49.138;10.090;2023-04-29T02:02:35;10.40;99.90
10314;DHT22;5202;49.138;10.090;2023-04-29T02:05:13;10.50;99.90
10314;DHT22;5202;49.138;10.090;2023-04-29T02:07:59;10.50;99.90
10314;DHT22;5202;49.138;10.090;2023-04-29T02:10:30;10.50;99.90
10314;DHT22;5202;49.138;10.090;2023-04-29T02:13:12;10.50;99.90
10314;DHT22;5202;49.138;10.090;2023-04-29T02:15:41;10.50;99.90
10314;DHT22;5202;49.138;10.090;2023-04-29T02:18:10;10.50;99.90
10314;DHT22;5202;49.138;10.090;2023-04-29T02:20:39;10.60;99.90
10314;DHT22;5202;49.138;10.090;2023-04-29T02:23:08;10.50;99.90
10314;DHT22;5202;49.138;10.090;2023-04-29T02:25:36;10.50;99.90
10314;DHT22;5202;49.138;10.090;2023-04-29T02:28:04;10.50;99.90
10314;DHT22;5202;49.138;10.090;2023-04-29T02:30:34;10.60;99.90
10314;DHT22;5202;49.138;10.090;2023-04-29T02:33:02;10.60;99.90
10314;DHT22;5202;49.138;10.090;2023-04-29T02:35:34;10.60;99.90
10314;DHT22;5202;49.138;10.090;2023-04-29T02:38:03;10.70;99.90
10314;DHT22;5202;49.138;10.090;2023-04-29T02:40:31;10.70;99.90
10314;DHT22;5202;49.138;10.090;2023-04-29T02:42:59;10.70;99.90
10314;DHT22;5202;49.138;10.090;2023-04-29T02:45:28;10.80;99.90
10314;DHT22;5202;49.138;10.090;2023-04-29T02:47:58;10.70;99.90
10314;DHT22;5202;49.138;10.090;2023-04-29T02:50:27;10.70;99.90
10314;DHT22;5202;49.138;10.090;2023-04-29T02:52:55;10.70;99.90
10314;DHT22;5202;49.138;10.090;2023-04-29T02:55:24;10.70;99.90
10314;DHT22;5202;49.138;10.090;2023-04-29T02:57:55;10.70;99.90
10314;DHT22;5202;49.138;10.090;2023-04-29T03:00:23;10.70;99.90
10314;DHT22;5202;49.138;10.090;2023-04-29T03:02:51;10.70;99.90
10314;DHT22;5202;49.138;10.090;2023-04-29T03:05:21;10.80;99.90
10314;DHT22;5202;49.138;10.090;2023-04-29T03:07:50;10.80;99.90
10314;DHT22;5202;49.138;10.090;2023-04-29T03:10:18;10.80;99.90
10314;DHT22;5202;49.138;10.090;2023-04-29T03:12:46;10.80;99.90
10314;DHT22;5202;49.138;10.090;2023-04-29T03:15:15;10.80;99.90
10314;DHT22;5202;49.138;10.090;2023-04-29T03:17:44;10.80;99.90
10314;DHT22;5202;49.138;10.090;2023-04-29T03:20:12;10.90;99.90
10314;DHT22;5202;49.138;10.090;2023-04-29T03:22:42;10.90;99.90
10314;DHT22;5202;49.138;10.090;2023-04-29T03:25:10;10.90;99.90
10314;DHT22;5202;49.138;10.090;2023-04-29T03:27:39;10.90;99.90
10314;DHT22;5202;49.138;10.090;2023-04-29T03:30:09;10.90;99.90
10314;DHT22;5202;49.138;10.090;2023-04-29T03:32:44;10.90;99.90
10314;DHT22;5202;49.138;10.090;2023-04-29T03:35:12;10.90;99.90
10314;DHT22;5202;49.138;10.090;2023-04-29T03:38:03;10.90;99.90
10314;DHT22;5202;49.138;10.090;2023-04-29T03:40:33;10.90;99.90
10314;DHT22;5202;49.138;10.090;2023-04-29T03:43:01;10.90;99.90
10314;DHT22;5202;49.138;10.090;2023-04-29T03:45:30;10.90;99.90
10314;DHT22;5202;49.138;10.090;2023-04-29T03:47:59;10.90;99.90
10314;DHT22;5202;49.138;10.090;2023-04-29T03:50:28;10.90;99.90
10314;DHT22;5202;49.138;10.090;2023-04-29T03:52:57;10.90;99.90
10314;DHT22;5202;49.138;10.090;2023-04-29T03:55:30;10.90;99.90
10314;DHT22;5202;49.138;10.090;2023-04-29T03:57:58;10.90;99.90
10314;DHT22;5202;49.138;10.090;2023-04-29T04:00:27;10.90;99.90
10314;DHT22;5202;49.138;10.090;2023-04-29T04:02:58;10.90;99.90
10314;DHT22;5202;49.138;10.090;2023-04-29T04:05:31;11.00;99.90
10314;DHT22;5202;49.138;10.090;2023-04-29T04:08:06;11.00;99.90
10314;DHT22;5202;49.138;10.090;2023-04-29T04:10:51;11.00;99.90
10314;DHT22;5202;49.138;10.090;2023-04-29T04:13:31;11.00;99.90
10314;DHT22;5202;49.138;10.090;2023-04-29T04:15:59;11.00;99.90
10314;DHT22;5202;49.138;10.090;2023-04-29T04:18:29;11.10;99.90
10314;DHT22;5202;49.138;10.090;2023-04-29T04:21:04;11.10;99.90
10314;DHT22;5202;49.138;10.090;2023-04-29T04:23:34;11.10;99.90
10314;DHT22;5202;49.138;10.090;2023-04-29T04:26:05;11.10;99.90
10314;DHT22;5202;49.138;10.090;2023-04-29T04:28:59;11.20;99.90
10314;DHT22;5202;49.138;10.090;2023-04-29T04:31:54;11.20;99.90
10314;DHT22;5202;49.138;10.090;2023-04-29T04:34:23;11.20;99.90
10314;DHT22;5202;49.138;10.090;2023-04-29T04:36:54;11.30;99.90
10314;DHT22;5202;49.138;10.090;2023-04-29T04:39:22;11.20;99.90
10314;DHT22;5202;49.138;10.090;2023-04-29T04:41:53;11.30;99.90
10314;DHT22;5202;49.138;10.090;2023-04-29T04:44:22;11.30;99.90
10314;DHT22;5202;49.138;10.090;2023-04-29T04:47:00;11.30;99.90
10314;DHT22;5202;49.138;10.090;2023-04-29T04:49:58;11.40;99.90
10314;DHT22;5202;49.138;10.090;2023-04-29T04:52:26;11.40;99.90
10314;DHT22;5202;49.138;10.090;2023-04-29T04:55:02;11.40;99.90
10314;DHT22;5202;49.138;10.090;2023-04-29T04:57:35;11.50;99.90
10314;DHT22;5202;49.138;10.090;2023-04-29T05:00:05;11.50;99.90
10314;DHT22;5202;49.138;10.090;2023-04-29T05:02:34;11.50;99.90
10314;DHT22;5202;49.138;10.090;2023-04-29T05:05:04;11.40;99.90
10314;DHT22;5202;49.138;10.090;2023-04-29T05:07:35;11.50;99.90
10314;DHT22;5202;49.138;10.090;2023-04-29T05:10:05;11.50;99.90
10314;DHT22;5202;49.138;10.090;2023-04-29T05:12:42;11.50;99.90
10314;DHT22;5202;49.138;10.090;2023-04-29T05:15:11;11.60;99.90
10314;DHT22;5202;49.138;10.090;2023-04-29T05:17:42;11.60;99.90
10314;DHT22;5202;49.138;10.090;2023-04-29T05:20:11;11.60;99.90
10314;DHT22;5202;49.138;10.090;2023-04-29T05:22:39;11.60;99.90
10314;DHT22;5202;49.138;10.090;2023-04-29T05:25:08;11.60;99.90
10314;DHT22;5202;49.138;10.090;2023-04-29T05:27:38;11.60;99.90
10314;DHT22;5202;49.138;10.090;2023-04-29T05:30:11;11.70;99.90
10314;DHT22;5202;49.138;10.090;2023-04-29T05:32:40;11.70;99.90
10314;DHT22;5202;49.138;10.090;2023-04-29T05:35:12;11.80;99.90
10314;DHT22;5202;49.138;10.090;2023-04-29T05:37:40;11.80;99.90
10314;DHT22;5202;49.138;10.090;2023-04-29T05:40:23;11.80;99.90
10314;DHT22;5202;49.138;10.090;2023-04-29T05:42:59;11.90;99.90
10314;DHT22;5202;49.138;10.090;2023-04-29T05:45:28;11.90;99.90
10314;DHT22;5202;49.138;10.090;2023-04-29T05:47:57;11.80;99.90
10314;DHT22;5202;49.138;10.090;2023-04-29T05:50:25;11.80;99.90
10314;DHT22;5202;49.138;10.090;2023-04-29T05:52:53;11.80;99.90
10314;DHT22;5202;49.138;10.090;2023-04-29T05:55:23;11.80;99.90
10314;DHT22;5202;49.138;10.090;2023-04-29T05:57:52;11.80;99.90
10314;DHT22;5202;49.138;10.090;2023-04-29T06:00:21;11.90;99.90
10314;DHT22;5202;49.138;10.090;2023-04-29T06:02:55;11.90;99.90
10314;DHT22;5202;49.138;10.090;2023-04-29T06:05:53;12.00;99.90
10314;DHT22;5202;49.138;10.090;2023-04-29T06:08:41;12.00;99.90
10314;DHT22;5202;49.138;10.090;2023-04-29T06:11:17;12.00;99.90
10314;DHT22;5202;49.138;10.090;2023-04-29T06:13:45;12.00;99.90
10314;DHT22;5202;49.138;10.090;2023-04-29T06:16:14;12.10;99.90
10314;DHT22;5202;49.138;10.090;2023-04-29T06:18:44;12.10;99.90
10314;DHT22;5202;49.138;10.090;2023-04-29T06:21:13;12.10;99.90
10314;DHT22;5202;49.138;10.090;2023-04-29T06:23:42;12.10;99.90
10314;DHT22;5202;49.138;10.090;2023-04-29T06:26:15;12.00;99.90
10314;DHT22;5202;49.138;10.090;2023-04-29T06:28:45;12.10;99.90
10314;DHT22;5202;49.138;10.090;2023-04-29T06:31:14;12.10;99.90
10314;DHT22;5202;49.138;10.090;2023-04-29T06:33:44;12.10;99.90
10314;DHT22;5202;49.138;10.090;2023-04-29T06:36:12;12.20;99.90
10314;DHT22;5202;49.138;10.090;2023-04-29T06:38:59;12.30;99.90
10314;DHT22;5202;49.138;10.090;2023-04-29T06:41:47;12.30;99.90
10314;DHT22;5202;49.138;10.090;2023-04-29T06:44:34;12.40;99.90
10314;DHT22;5202;49.138;10.090;2023-04-29T06:47:37;12.40;99.90
10314;DHT22;5202;49.138;10.090;2023-04-29T06:50:12;12.40;99.90
10314;DHT22;5202;49.138;10.090;2023-04-29T06:52:42;12.30;99.90
10314;DHT22;5202;49.138;10.090;2023-04-29T06:55:11;12.30;99.90
10314;DHT22;5202;49.138;10.090;2023-04-29T06:57:41;12.20;99.90
10314;DHT22;5202;49.138;10.090;2023-04-29T07:00:10;12.10;99.90
10314;DHT22;5202;49.138;10.090;2023-04-29T07:02:38;12.10;99.90
10314;DHT22;5202;49.138;10.090;2023-04-29T07:05:08;12.10;99.90
10314;DHT22;5202;49.138;10.090;2023-04-29T07:07:38;12.10;99.90
10314;DHT22;5202;49.138;10.090;2023-04-29T07:10:07;12.20;99.90
10314;DHT22;5202;49.138;10.090;2023-04-29T07:12:36;12.20;99.90
10314;DHT22;5202;49.138;10.090;2023-04-29T07:15:05;12.20;99.90
10314;DHT22;5202;49.138;10.090;2023-04-29T07:17:34;12.20;99.90
10314;DHT22;5202;49.138;10.090;2023-04-29T07:20:03;12.10;99.90
10314;DHT22;5202;49.138;10.090;2023-04-29T07:22:32;12.00;99.90
10314;DHT22;5202;49.138;10.090;2023-04-29T07:25:03;12.10;99.90
10314;DHT22;5202;49.138;10.090;2023-04-29T07:27:33;12.00;99.90
10314;DHT22;5202;49.138;10.090;2023-04-29T07:30:02;12.00;99.90
10314;DHT22;5202;49.138;10.090;2023-04-29T07:32:31;11.90;99.90
10314;DHT22;5202;49.138;10.090;2023-04-29T07:35:02;11.90;99.90
10314;DHT22;5202;49.138;10.090;2023-04-29T07:37:31;11.90;99.90
10314;DHT22;5202;49.138;10.090;2023-04-29T07:39:59;11.80;99.90
10314;DHT22;5202;49.138;10.090;2023-04-29T07:42:29;11.80;99.90
10314;DHT22;5202;49.138;10.090;2023-04-29T07:44:58;11.80;99.90
10314;DHT22;5202;49.138;10.090;2023-04-29T07:47:27;11.80;99.90
10314;DHT22;5202;49.138;10.090;2023-04-29T07:49:55;11.80;99.90
10314;DHT22;5202;49.138;10.090;2023-04-29T07:52:24;11.70;99.90
10314;DHT22;5202;49.138;10.090;2023-04-29T07:54:52;11.80;99.90
10314;DHT22;5202;49.138;10.090;2023-04-29T07:57:22;11.80;99.90
10314;DHT22;5202;49.138;10.090;2023-04-29T07:59:52;11.80;99.90
10314;DHT22;5202;49.138;10.090;2023-04-29T08:02:20;11.80;99.90
10314;DHT22;5202;49.138;10.090;2023-04-29T08:04:50;11.90;99.90
10314;DHT22;5202;49.138;10.090;2023-04-29T08:07:42;11.90;99.90
10314;DHT22;5202;49.138;10.090;2023-04-29T08:10:12;11.90;99.90
10314;DHT22;5202;49.138;10.090;2023-04-29T08:12:45;11.90;99.90
10314;DHT22;5202;49.138;10.090;2023-04-29T08:15:15;11.90;99.90
10314;DHT22;5202;49.138;10.090;2023-04-29T08:17:44;11.90;99.90
10314;DHT22;5202;49.138;10.090;2023-04-29T08:20:12;11.90;99.90
10314;DHT22;5202;49.138;10.090;2023-04-29T08:22:41;11.90;99.90
10314;DHT22;5202;49.138;10.090;2023-04-29T08:25:10;12.00;99.90
10314;DHT22;5202;49.138;10.090;2023-04-29T08:27:41;12.00;99.90
10314;DHT22;5202;49.138;10.090;2023-04-29T08:30:15;12.10;99.90
10314;DHT22;5202;49.138;10.090;2023-04-29T08:32:43;12.10;99.90
10314;DHT22;5202;49.138;10.090;2023-04-29T08:35:12;12.00;99.90
10314;DHT22;5202;49.138;10.090;2023-04-29T08:37:40;12.00;99.90
10314;DHT22;5202;49.138;10.090;2023-04-29T08:40:34;12.00;99.90
10314;DHT22;5202;49.138;10.090;2023-04-29T08:43:03;12.00;99.90
10314;DHT22;5202;49.138;10.090;2023-04-29T08:45:33;12.00;99.90
10314;DHT22;5202;49.138;10.090;2023-04-29T08:48:02;12.00;99.90
10314;DHT22;5202;49.138;10.090;2023-04-29T08:50:31;12.00;99.90
10314;DHT22;5202;49.138;10.090;2023-04-29T08:53:00;11.90;99.90
10314;DHT22;5202;49.138;10.090;2023-04-29T08:55:28;11.90;99.90
10314;DHT22;5202;49.138;10.090;2023-04-29T08:57:56;11.80;99.90
10314;DHT22;5202;49.138;10.090;2023-04-29T09:00:25;11.80;99.90
10314;DHT22;5202;49.138;10.090;2023-04-29T09:02:56;11.80;99.90
10314;DHT22;5202;49.138;10.090;2023-04-29T09:05:26;11.80;99.90
10314;DHT22;5202;49.138;10.090;2023-04-29T09:07:56;11.80;99.90
10314;DHT22;5202;49.138;10.090;2023-04-29T09:10:29;11.80;99.90
10314;DHT22;5202;49.138;10.090;2023-04-29T09:12:57;11.80;99.90
10314;DHT22;5202;49.138;10.090;2023-04-29T09:15:25;11.80;99.90
10314;DHT22;5202;49.138;10.090;2023-04-29T09:17:56;11.90;99.90
10314;DHT22;5202;49.138;10.090;2023-04-29T09:20:30;11.90;99.90
10314;DHT22;5202;49.138;10.090;2023-04-29T09:23:00;12.00;99.90
10314;DHT22;5202;49.138;10.090;2023-04-29T09:25:30;12.10;99.90
10314;DHT22;5202;49.138;10.090;2023-04-29T09:27:58;12.10;99.90
10314;DHT22;5202;49.138;10.090;2023-04-29T09:30:45;12.20;99.90
10314;DHT22;5202;49.138;10.090;2023-04-29T09:33:15;12.20;99.90
10314;DHT22;5202;49.138;10.090;2023-04-29T09:35:43;12.30;99.90
10314;DHT22;5202;49.138;10.090;2023-04-29T09:38:13;12.30;99.90
10314;DHT22;5202;49.138;10.090;2023-04-29T09:40:42;12.20;99.90
10314;DHT22;5202;49.138;10.090;2023-04-29T09:43:25;12.20;99.90
10314;DHT22;5202;49.138;10.090;2023-04-29T09:45:54;12.30;99.90
10314;DHT22;5202;49.138;10.090;2023-04-29T09:48:30;12.40;99.90
10314;DHT22;5202;49.138;10.090;2023-04-29T09:51:00;12.50;99.90
10314;DHT22;5202;49.138;10.090;2023-04-29T09:53:30;12.50;99.90
10314;DHT22;5202;49.138;10.090;2023-04-29T09:56:00;12.50;99.90
10314;DHT22;5202;49.138;10.090;2023-04-29T09:58:32;12.40;99.90
10314;DHT22;5202;49.138;10.090;2023-04-29T10:01:04;12.50;99.90
10314;DHT22;5202;49.138;10.090;2023-04-29T10:03:35;12.50;99.90
10314;DHT22;5202;49.138;10.090;2023-04-29T10:06:06;12.50;99.90
10314;DHT22;5202;49.138;10.090;2023-04-29T10:08:38;12.50;99.90
10314;DHT22;5202;49.138;10.090;2023-04-29T10:11:12;12.50;99.90
10314;DHT22;5202;49.138;10.090;2023-04-29T10:13:41;12.60;99.90
10314;DHT22;5202;49.138;10.090;2023-04-29T10:16:24;12.60;99.90
10314;DHT22;5202;49.138;10.090;2023-04-29T10:19:01;12.60;99.90
10314;DHT22;5202;49.138;10.090;2023-04-29T10:21:32;12.60;99.90
10314;DHT22;5202;49.138;10.090;2023-04-29T10:24:01;12.50;99.90
10314;DHT22;5202;49.138;10.090;2023-04-29T10:26:31;12.40;99.90
10314;DHT22;5202;49.138;10.090;2023-04-29T10:29:04;12.40;99.90
10314;DHT22;5202;49.138;10.090;2023-04-29T10:31:37;12.40;99.90
10314;DHT22;5202;49.138;10.090;2023-04-29T10:34:10;12.40;99.90
10314;DHT22;5202;49.138;10.090;2023-04-29T10:36:39;12.50;99.90
10314;DHT22;5202;49.138;10.090;2023-04-29T10:39:18;12.60;99.90
10314;DHT22;5202;49.138;10.090;2023-04-29T10:41:51;12.60;99.90
10314;DHT22;5202;49.138;10.090;2023-04-29T10:44:19;12.60;99.90
10314;DHT22;5202;49.138;10.090;2023-04-29T10:47:19;12.60;99.90
10314;DHT22;5202;49.138;10.090;2023-04-29T10:50:04;12.70;99.90
10314;DHT22;5202;49.138;10.090;2023-04-29T10:52:52;12.70;99.90
10314;DHT22;5202;49.138;10.090;2023-04-29T10:55:22;12.90;99.90
10314;DHT22;5202;49.138;10.090;2023-04-29T10:57:51;13.20;99.90
10314;DHT22;5202;49.138;10.090;2023-04-29T11:00:23;13.50;99.90
10314;DHT22;5202;49.138;10.090;2023-04-29T11:02:54;13.70;99.90
10314;DHT22;5202;49.138;10.090;2023-04-29T11:05:33;13.70;99.90
10314;DHT22;5202;49.138;10.090;2023-04-29T11:08:08;13.60;99.90
10314;DHT22;5202;49.138;10.090;2023-04-29T11:10:40;13.60;99.90
10314;DHT22;5202;49.138;10.090;2023-04-29T11:13:20;13.50;99.90
10314;DHT22;5202;49.138;10.090;2023-04-29T11:15:50;13.40;99.90
10314;DHT22;5202;49.138;10.090;2023-04-29T11:18:18;13.30;99.90
10314;DHT22;5202;49.138;10.090;2023-04-29T11:21:13;13.30;99.90
10314;DHT22;5202;49.138;10.090;2023-04-29T11:23:41;13.20;99.90
10314;DHT22;5202;49.138;10.090;2023-04-29T11:26:11;13.30;99.90
10314;DHT22;5202;49.138;10.090;2023-04-29T11:28:41;13.40;99.90
10314;DHT22;5202;49.138;10.090;2023-04-29T11:31:10;13.40;99.90
10314;DHT22;5202;49.138;10.090;2023-04-29T11:33:38;13.20;99.90
10314;DHT22;5202;49.138;10.090;2023-04-29T11:36:07;13.20;99.90
10314;DHT22;5202;49.138;10.090;2023-04-29T11:38:39;13.00;99.90
10314;DHT22;5202;49.138;10.090;2023-04-29T11:41:09;12.90;99.90
10314;DHT22;5202;49.138;10.090;2023-04-29T11:43:38;12.90;99.90
10314;DHT22;5202;49.138;10.090;2023-04-29T11:46:11;12.80;99.90
10314;DHT22;5202;49.138;10.090;2023-04-29T11:48:45;12.80;99.90
10314;DHT22;5202;49.138;10.090;2023-04-29T11:51:15;12.80;99.90
10314;DHT22;5202;49.138;10.090;2023-04-29T11:53:46;12.70;99.90
10314;DHT22;5202;49.138;10.090;2023-04-29T11:56:14;12.60;99.90
10314;DHT22;5202;49.138;10.090;2023-04-29T11:58:42;12.50;99.90
10314;DHT22;5202;49.138;10.090;2023-04-29T12:01:11;12.50;99.90
10314;DHT22;5202;49.138;10.090;2023-04-29T12:03:40;12.60;99.90
10314;DHT22;5202;49.138;10.090;2023-04-29T12:06:12;12.60;99.90
10314;DHT22;5202;49.138;10.090;2023-04-29T12:08:41;12.60;99.90
10314;DHT22;5202;49.138;10.090;2023-04-29T12:11:13;12.60;99.90
10314;DHT22;5202;49.138;10.090;2023-04-29T12:13:41;12.60;99.90
10314;DHT22;5202;49.138;10.090;2023-04-29T12:16:10;12.60;99.90
10314;DHT22;5202;49.138;10.090;2023-04-29T12:18:38;12.60;99.90
10314;DHT22;5202;49.138;10.090;2023-04-29T12:21:06;12.60;99.90
10314;DHT22;5202;49.138;10.090;2023-04-29T12:23:35;12.70;99.90
10314;DHT22;5202;49.138;10.090;2023-04-29T12:26:04;12.70;99.90
10314;DHT22;5202;49.138;10.090;2023-04-29T12:28:33;12.80;99.90
10314;DHT22;5202;49.138;10.090;2023-04-29T12:31:02;12.80;99.90
10314;DHT22;5202;49.138;10.090;2023-04-29T12:33:30;12.90;99.90
10314;DHT22;5202;49.138;10.090;2023-04-29T12:35:59;12.80;99.90
10314;DHT22;5202;49.138;10.090;2023-04-29T12:38:29;12.90;99.90
10314;DHT22;5202;49.138;10.090;2023-04-29T12:40:59;13.00;99.90
10314;DHT22;5202;49.138;10.090;2023-04-29T12:43:28;13.00;99.90
10314;DHT22;5202;49.138;10.090;2023-04-29T12:46:01;13.10;99.90
10314;DHT22;5202;49.138;10.090;2023-04-29T12:48:31;13.10;99.90
10314;DHT22;5202;49.138;10.090;2023-04-29T12:51:00;13.20;99.90
10314;DHT22;5202;49.138;10.090;2023-04-29T12:53:29;13.30;99.90
10314;DHT22;5202;49.138;10.090;2023-04-29T12:55:58;13.30;99.90
10314;DHT22;5202;49.138;10.090;2023-04-29T12:58:27;13.30;99.90
10314;DHT22;5202;49.138;10.090;2023-04-29T13:00:56;13.30;99.90
10314;DHT22;5202;49.138;10.090;2023-04-29T13:03:26;13.30;99.90
10314;DHT22;5202;49.138;10.090;2023-04-29T13:05:55;13.30;99.90
10314;DHT22;5202;49.138;10.090;2023-04-29T13:08:23;13.30;99.90
10314;DHT22;5202;49.138;10.090;2023-04-29T13:10:51;13.40;99.90
10314;DHT22;5202;49.138;10.090;2023-04-29T13:13:19;13.30;99.90
10314;DHT22;5202;49.138;10.090;2023-04-29T13:15:47;13.40;99.90
10314;DHT22;5202;49.138;10.090;2023-04-29T13:18:16;13.50;99.90
10314;DHT22;5202;49.138;10.090;2023-04-29T13:20:45;13.50;99.90
10314;DHT22;5202;49.138;10.090;2023-04-29T13:23:14;13.50;99.90
10314;DHT22;5202;49.138;10.090;2023-04-29T13:25:42;13.50;99.90
10314;DHT22;5202;49.138;10.090;2023-04-29T13:28:10;13.50;99.90
10314;DHT22;5202;49.138;10.090;2023-04-29T13:30:38;13.50;99.90
10314;DHT22;5202;49.138;10.090;2023-04-29T13:33:07;13.50;99.90
10314;DHT22;5202;49.138;10.090;2023-04-29T13:35:39;13.50;99.90
10314;DHT22;5202;49.138;10.090;2023-04-29T13:38:09;13.50;99.90
10314;DHT22;5202;49.138;10.090;2023-04-29T13:40:37;13.40;99.90
10314;DHT22;5202;49.138;10.090;2023-04-29T13:43:12;13.30;99.90
10314;DHT22;5202;49.138;10.090;2023-04-29T13:45:54;13.30;99.90
10314;DHT22;5202;49.138;10.090;2023-04-29T13:48:23;13.30;99.90
10314;DHT22;5202;49.138;10.090;2023-04-29T13:51:11;13.30;99.90
10314;DHT22;5202;49.138;10.090;2023-04-29T13:54:01;13.30;99.90
10314;DHT22;5202;49.138;10.090;2023-04-29T13:56:32;13.30;99.90
10314;DHT22;5202;49.138;10.090;2023-04-29T13:59:03;13.40;99.90
10314;DHT22;5202;49.138;10.090;2023-04-29T14:01:34;13.40;99.90
10314;DHT22;5202;49.138;10.090;2023-04-29T14:04:48;13.40;99.90
10314;DHT22;5202;49.138;10.090;2023-04-29T14:07:16;13.30;99.90
10314;DHT22;5202;49.138;10.090;2023-04-29T14:09:47;13.20;99.90
10314;DHT22;5202;49.138;10.090;2023-04-29T14:12:15;13.10;99.90
10314;DHT22;5202;49.138;10.090;2023-04-29T14:14:44;13.10;99.90
10314;DHT22;5202;49.138;10.090;2023-04-29T14:17:12;13.00;99.90
10314;DHT22;5202;49.138;10.090;2023-04-29T14:19:40;13.00;99.90
10314;DHT22;5202;49.138;10.090;2023-04-29T14:22:08;13.00;99.90
10314;DHT22;5202;49.138;10.090;2023-04-29T14:24:36;12.90;99.90
10314;DHT22;5202;49.138;10.090;2023-04-29T14:27:07;12.80;99.90
10314;DHT22;5202;49.138;10.090;2023-04-29T14:29:35;12.80;99.90
10314;DHT22;5202;49.138;10.090;2023-04-29T14:32:04;12.70;99.90
10314;DHT22;5202;49.138;10.090;2023-04-29T14:34:33;12.60;99.90
10314;DHT22;5202;49.138;10.090;2023-04-29T14:37:01;12.60;99.90
10314;DHT22;5202;49.138;10.090;2023-04-29T14:39:29;12.60;99.90
10314;DHT22;5202;49.138;10.090;2023-04-29T14:41:57;12.60;99.90
10314;DHT22;5202;49.138;10.090;2023-04-29T14:44:30;12.70;99.90
10314;DHT22;5202;49.138;10.090;2023-04-29T14:46:59;12.70;99.90
10314;DHT22;5202;49.138;10.090;2023-04-29T14:49:27;12.70;99.90
10314;DHT22;5202;49.138;10.090;2023-04-29T14:51:57;12.80;99.90
10314;DHT22;5202;49.138;10.090;2023-04-29T14:54:25;12.80;99.90
10314;DHT22;5202;49.138;10.090;2023-04-29T14:56:54;12.80;99.90
10314;DHT22;5202;49.138;10.090;2023-04-29T14:59:23;12.80;99.90
10314;DHT22;5202;49.138;10.090;2023-04-29T15:01:53;12.80;99.90
10314;DHT22;5202;49.138;10.090;2023-04-29T15:04:24;12.80;99.90
10314;DHT22;5202;49.138;10.090;2023-04-29T15:06:54;12.80;99.90
10314;DHT22;5202;49.138;10.090;2023-04-29T15:09:23;12.80;99.90
10314;DHT22;5202;49.138;10.090;2023-04-29T15:11:52;12.80;99.90
10314;DHT22;5202;49.138;10.090;2023-04-29T15:14:20;12.80;99.90
10314;DHT22;5202;49.138;10.090;2023-04-29T15:16:48;12.80;99.90
10314;DHT22;5202;49.138;10.090;2023-04-29T15:19:18;12.70;99.90
10314;DHT22;5202;49.138;10.090;2023-04-29T15:21:47;12.70;99.90
10314;DHT22;5202;49.138;10.090;2023-04-29T15:24:15;12.70;99.90
10314;DHT22;5202;49.138;10.090;2023-04-29T15:26:44;12.70;99.90
10314;DHT22;5202;49.138;10.090;2023-04-29T15:29:13;12.80;99.90
10314;DHT22;5202;49.138;10.090;2023-04-29T15:31:41;12.80;99.90
10314;DHT22;5202;49.138;10.090;2023-04-29T15:34:09;12.80;99.90
10314;DHT22;5202;49.138;10.090;2023-04-29T15:36:39;12.80;99.90
10314;DHT22;5202;49.138;10.090;2023-04-29T15:39:08;12.80;99.90
10314;DHT22;5202;49.138;10.090;2023-04-29T15:41:38;12.90;99.90
10314;DHT22;5202;49.138;10.090;2023-04-29T15:44:06;12.90;99.90
10314;DHT22;5202;49.138;10.090;2023-04-29T15:46:34;12.90;99.90
10314;DHT22;5202;49.138;10.090;2023-04-29T15:49:02;12.90;99.90
10314;DHT22;5202;49.138;10.090;2023-04-29T15:51:32;12.90;99.90
10314;DHT22;5202;49.138;10.090;2023-04-29T15:54:01;12.90;99.90
10314;DHT22;5202;49.138;10.090;2023-04-29T15:56:30;12.90;99.90
10314;DHT22;5202;49.138;10.090;2023-04-29T15:58:59;12.90;99.90
10314;DHT22;5202;49.138;10.090;2023-04-29T16:01:27;12.80;99.90